createdAt,value
2023-05-24T04:31:33.161Z,956.7900
2023-05-24T04:32:35.000Z,956.7908
2023-05-24T04:33:37.036Z,956.7946
2023-05-24T04:34:39.164Z,956.8077
2023-05-24T04:35:41.114Z,956.8638
2023-05-24T04:36:43.148Z,956.8669
2023-05-24T04:37:45.217Z,956.8569
2023-05-24T04:38:47.278Z,956.8454
2023-05-24T04:39:49.379Z,956.8362
2023-05-24T04:40:51.345Z,956.8339
2023-05-24T04:41:53.407Z,956.8369
2023-05-24T04:42:55.420Z,956.8454
2023-05-24T04:43:57.449Z,956.8592
2023-05-24T04:44:59.514Z,956.8677
2023-05-24T04:46:01.559Z,956.8638
2023-05-24T04:47:03.687Z,956.8569
2023-05-24T04:48:05.696Z,956.8523
2023-05-24T04:49:07.673Z,956.8392
2023-05-24T04:50:09.761Z,956.8385
2023-05-24T04:51:11.781Z,956.8285
2023-05-24T04:52:13.838Z,956.8308
2023-05-24T04:53:15.871Z,956.8454
2023-05-24T04:54:17.914Z,956.8569
2023-05-24T04:55:19.949Z,956.8685
2023-05-24T04:56:21.989Z,956.8738
2023-05-24T04:57:24.035Z,956.8661
2023-05-24T04:58:26.087Z,956.8692
2023-05-24T04:59:28.111Z,956.8885
2023-05-24T05:00:30.174Z,956.8954
2023-05-24T05:01:32.222Z,956.9069
2023-05-24T05:02:34.301Z,956.9400
2023-05-24T05:03:36.412Z,956.9669
2023-05-24T05:04:38.326Z,956.9769
2023-05-24T05:05:40.376Z,956.9900
2023-05-24T05:06:42.442Z,957.0062
2023-05-24T05:07:44.496Z,957.0162
2023-05-24T05:08:46.519Z,957.0046
2023-05-24T05:09:48.588Z,957.0023
2023-05-24T05:10:50.633Z,957.0200
2023-05-24T05:11:52.672Z,957.0285
2023-05-24T05:12:54.706Z,957.0316
2023-05-24T05:13:56.798Z,957.0400
2023-05-24T05:14:58.796Z,957.0492
2023-05-24T05:16:00.882Z,957.0493
2023-05-24T05:17:02.912Z,957.0662
2023-05-24T05:18:04.991Z,957.0600
2023-05-24T05:19:07.007Z,957.0585
2023-05-24T05:20:09.133Z,957.0670
2023-05-24T05:21:11.070Z,957.0715
2023-05-24T05:22:13.114Z,957.0662
2023-05-24T05:23:15.287Z,957.0785
2023-05-24T05:24:17.243Z,957.0477
2023-05-24T05:25:19.277Z,957.0277
2023-05-24T05:26:21.313Z,957.0254
2023-05-24T05:27:23.355Z,957.0431
2023-05-24T05:28:25.398Z,957.0508
2023-05-24T05:29:27.424Z,957.0600
2023-05-24T05:30:29.513Z,957.0739
2023-05-24T05:31:31.538Z,957.0969
2023-05-24T05:32:33.633Z,957.1046
2023-05-24T05:33:35.643Z,957.1069
2023-05-24T05:34:37.671Z,957.1269
2023-05-24T05:35:39.718Z,957.1377
2023-05-24T05:36:41.754Z,957.1454
2023-05-24T05:37:43.852Z,957.1661
2023-05-24T05:38:45.830Z,957.1584
2023-05-24T05:39:47.913Z,957.1516
2023-05-24T05:40:49.949Z,957.1584
2023-05-24T05:41:51.987Z,957.1539
2023-05-24T05:42:54.025Z,957.1531
2023-05-24T05:43:56.347Z,957.1561
2023-05-24T05:44:58.166Z,957.1592
2023-05-24T05:46:00.230Z,957.1715
2023-05-24T05:47:02.254Z,957.1577
2023-05-24T05:48:04.334Z,957.1661
2023-05-24T05:49:06.398Z,957.1800
2023-05-24T05:50:08.406Z,957.1892
2023-05-24T05:51:10.450Z,957.1992
2023-05-24T05:52:12.482Z,957.1869
2023-05-24T05:53:14.523Z,957.1808
2023-05-24T05:54:16.601Z,957.1900
2023-05-24T05:55:18.594Z,957.1854
2023-05-24T05:56:20.647Z,957.1838
2023-05-24T05:57:22.753Z,957.1631
2023-05-24T05:58:24.757Z,957.1723
2023-05-24T05:59:26.804Z,957.1838
2023-05-24T06:00:28.957Z,957.1685
2023-05-24T06:01:30.866Z,957.1723
2023-05-24T06:02:32.970Z,957.1869
2023-05-24T06:03:35.200Z,957.1738
2023-05-24T06:04:37.059Z,957.1977
2023-05-24T06:05:39.063Z,957.1846
2023-05-24T06:06:41.154Z,957.1923
2023-05-24T06:07:43.165Z,957.2077
2023-05-24T06:08:45.282Z,957.1846
2023-05-24T06:09:47.310Z,957.1900
2023-05-24T06:10:52.039Z,957.1962
2023-05-24T06:11:51.389Z,957.2261
2023-05-24T06:12:53.473Z,957.2223
2023-05-24T06:13:55.457Z,957.2216
2023-05-24T06:14:57.561Z,957.2139
2023-05-24T06:15:59.566Z,957.2438
2023-05-24T06:17:01.690Z,957.2208
2023-05-24T06:18:03.819Z,957.2323
2023-05-24T06:19:06.603Z,957.2154
2023-05-24T06:20:07.764Z,957.2146
2023-05-24T06:21:09.807Z,957.2100
2023-05-24T06:22:11.807Z,957.2469
2023-05-24T06:23:14.016Z,957.2408
2023-05-24T06:24:15.901Z,957.2523
2023-05-24T06:25:18.008Z,957.2392
2023-05-24T06:26:20.002Z,957.2646
2023-05-24T06:27:22.151Z,957.2615
2023-05-24T06:28:24.080Z,957.2523
2023-05-24T06:29:26.154Z,957.3000
2023-05-24T06:30:28.385Z,957.2977
2023-05-24T06:31:30.221Z,957.2923
2023-05-24T06:32:32.380Z,957.3100
2023-05-24T06:33:35.766Z,957.3185
2023-05-24T06:34:36.371Z,957.3062
2023-05-24T06:35:38.413Z,957.3169
2023-05-24T06:36:40.465Z,957.3392
2023-05-24T06:37:42.497Z,957.3723
2023-05-24T06:38:44.514Z,957.3638
2023-05-24T06:39:46.626Z,957.3730
2023-05-24T06:40:48.605Z,957.3661
2023-05-24T06:41:50.659Z,957.3700
2023-05-24T06:42:52.736Z,957.3762
2023-05-24T06:43:54.772Z,957.4100
2023-05-24T06:44:56.841Z,957.3992
2023-05-24T06:45:58.884Z,957.4039
2023-05-24T06:47:01.007Z,957.3977
2023-05-24T06:48:05.024Z,957.4269
2023-05-24T06:49:05.054Z,957.4131
2023-05-24T06:50:07.033Z,957.4139
2023-05-24T06:51:09.091Z,957.4108
2023-05-24T06:52:11.130Z,957.4277
2023-05-24T06:53:13.236Z,957.4523
2023-05-24T06:54:15.243Z,957.4469
2023-05-24T06:55:17.254Z,957.4431
2023-05-24T06:56:19.322Z,957.4584
2023-05-24T06:57:21.355Z,957.4769
2023-05-24T06:58:23.392Z,957.4615
2023-05-24T06:59:25.473Z,957.4485
2023-05-24T07:00:27.583Z,957.4554
2023-05-24T07:01:29.671Z,957.4384
2023-05-24T07:02:31.622Z,957.4277
2023-05-24T07:03:33.642Z,957.4300
2023-05-24T07:04:37.532Z,957.4307
2023-05-24T07:05:37.719Z,957.4462
2023-05-24T07:06:39.829Z,957.4592
2023-05-24T07:07:41.817Z,957.4523
2023-05-24T07:08:43.833Z,957.4785
2023-05-24T07:09:45.896Z,957.4615
2023-05-24T07:10:48.119Z,957.4684
2023-05-24T07:11:50.020Z,957.4823
2023-05-24T07:12:52.016Z,957.5008
2023-05-24T07:13:54.076Z,957.4823
2023-05-24T07:14:56.120Z,957.4831
2023-05-24T07:15:58.158Z,957.4830
2023-05-24T07:17:00.340Z,957.5031
2023-05-24T07:18:02.342Z,957.4846
2023-05-24T07:19:04.949Z,957.4923
2023-05-24T07:20:06.359Z,957.5177
2023-05-24T07:21:08.404Z,957.5184
2023-05-24T07:22:10.496Z,957.5331
2023-05-24T07:23:12.552Z,957.5185
2023-05-24T07:24:16.229Z,957.5261
2023-05-24T07:25:16.581Z,957.5354
2023-05-24T07:26:18.644Z,957.5416
2023-05-24T07:27:20.650Z,957.5331
2023-05-24T07:28:22.741Z,957.5323
2023-05-24T07:29:24.981Z,957.5477
2023-05-24T07:30:32.301Z,957.5515
2023-05-24T07:31:28.870Z,957.5623
2023-05-24T07:32:30.990Z,957.5615
2023-05-24T07:33:33.040Z,957.5493
2023-05-24T07:34:35.027Z,957.5385
2023-05-24T07:35:37.087Z,957.5493
2023-05-24T07:36:39.301Z,957.5200
2023-05-24T07:37:41.228Z,957.5308
2023-05-24T07:38:43.328Z,957.5508
2023-05-24T07:39:45.224Z,957.5785
2023-05-24T07:40:47.340Z,957.5608
2023-05-24T07:41:49.330Z,957.5416
2023-05-24T07:42:51.416Z,957.5269
2023-05-24T07:43:53.478Z,957.5092
2023-05-24T07:44:55.549Z,957.5177
2023-05-24T07:45:57.522Z,957.4946
2023-05-24T07:46:59.731Z,957.5085
2023-05-24T07:48:01.861Z,957.5131
2023-05-24T07:49:03.673Z,957.5331
2023-05-24T07:50:06.065Z,957.5254
2023-05-24T07:51:08.059Z,957.5439
2023-05-24T07:52:09.784Z,957.5215
2023-05-24T07:53:11.853Z,957.5339
2023-05-24T07:54:13.894Z,957.5416
2023-05-24T07:55:15.940Z,957.5416
2023-05-24T07:56:17.953Z,957.5308
2023-05-24T07:57:20.035Z,957.5839
2023-05-24T07:58:22.093Z,957.5577
2023-05-24T07:59:24.106Z,957.5562
2023-05-24T08:00:26.259Z,957.5593
2023-05-24T08:01:28.213Z,957.5523
2023-05-24T08:02:30.439Z,957.5331
2023-05-24T08:03:32.379Z,957.5046
2023-05-24T08:04:34.367Z,957.5269
2023-05-24T08:05:36.562Z,957.5085
2023-05-24T08:06:38.496Z,957.5123
2023-05-24T08:07:40.469Z,957.5246
2023-05-24T08:08:42.555Z,957.4938
2023-05-24T08:09:44.651Z,957.5100
2023-05-24T08:10:46.604Z,957.5169
2023-05-24T08:11:48.664Z,957.5023
2023-05-24T08:12:50.667Z,957.5031
2023-05-24T08:13:52.721Z,957.5400
2023-05-24T08:14:55.272Z,957.5361
2023-05-24T08:15:56.879Z,957.5254
2023-05-24T08:16:58.887Z,957.5531
2023-05-24T08:18:00.973Z,957.5092
2023-05-24T08:19:03.017Z,957.5184
2023-05-24T08:20:05.084Z,957.4908
2023-05-24T08:21:07.035Z,957.5215
2023-05-24T08:22:09.239Z,957.4823
2023-05-24T08:23:11.351Z,957.5023
2023-05-24T08:24:13.186Z,957.5261
2023-05-24T08:25:16.974Z,957.5331
2023-05-24T08:26:17.486Z,957.5115
2023-05-24T08:27:19.314Z,957.5008
2023-05-24T08:28:21.484Z,957.5323
2023-05-24T08:29:23.423Z,957.5316
2023-05-24T08:30:25.734Z,957.5331
2023-05-24T08:31:27.564Z,957.5762
2023-05-24T08:32:29.587Z,957.5630
2023-05-24T08:33:31.630Z,957.5523
2023-05-24T08:34:33.747Z,957.5769
2023-05-24T08:35:35.776Z,957.5792
2023-05-24T08:36:37.831Z,957.6000
2023-05-24T08:37:39.955Z,957.6415
2023-05-24T08:38:41.927Z,957.6439
2023-05-24T08:39:44.120Z,957.6869
2023-05-24T08:40:46.076Z,957.6539
2023-05-24T08:42:01.026Z,957.6546
2023-05-24T08:42:50.151Z,957.6500
2023-05-24T08:43:52.185Z,957.6785
2023-05-24T08:44:54.205Z,957.6454
2023-05-24T08:45:56.282Z,957.6600
2023-05-24T08:46:58.369Z,957.6823
2023-05-24T08:48:00.463Z,957.6692
2023-05-24T08:49:02.548Z,957.6761
2023-05-24T08:50:04.499Z,957.7208
2023-05-24T08:51:06.630Z,957.7177
2023-05-24T08:52:08.642Z,957.7408
2023-05-24T08:53:10.573Z,957.7615
2023-05-24T08:54:12.662Z,957.7800
2023-05-24T08:55:14.680Z,957.7931
2023-05-24T08:56:16.780Z,957.8093
2023-05-24T08:57:18.756Z,957.8577
2023-05-24T08:58:20.838Z,957.8623
2023-05-24T08:59:22.856Z,957.8484
2023-05-24T09:00:24.931Z,957.8446
2023-05-24T09:01:28.953Z,957.8593
2023-05-24T09:02:29.007Z,957.8984
2023-05-24T09:03:31.148Z,957.8854
2023-05-24T09:04:33.109Z,957.8708
2023-05-24T09:05:35.168Z,957.8839
2023-05-24T09:06:37.191Z,957.9246
2023-05-24T09:07:39.259Z,957.9138
2023-05-24T09:08:43.628Z,957.9277
2023-05-24T09:09:43.323Z,957.9484
2023-05-24T09:10:54.554Z,957.9407
2023-05-24T09:11:47.423Z,957.9315
2023-05-24T09:12:49.470Z,957.9223
2023-05-24T09:13:51.488Z,957.9661
2023-05-24T09:14:53.621Z,957.9308
2023-05-24T09:15:55.661Z,957.9161
2023-05-24T09:16:57.665Z,957.9185
2023-05-24T09:17:59.702Z,957.9146
2023-05-24T09:19:01.747Z,957.9362
2023-05-24T09:20:03.856Z,957.8962
2023-05-24T09:21:05.866Z,957.9077
2023-05-24T09:22:08.202Z,957.9215
2023-05-24T09:23:10.032Z,957.9154
2023-05-24T09:24:11.995Z,957.9223
2023-05-24T09:25:14.083Z,957.9577
2023-05-24T09:26:16.120Z,957.9492
2023-05-24T09:27:18.122Z,957.9585
2023-05-24T09:28:20.167Z,957.9854
2023-05-24T09:29:22.359Z,957.9831
2023-05-24T09:30:24.279Z,957.9585
2023-05-24T09:31:26.344Z,957.9469
2023-05-24T09:32:28.437Z,957.9523
2023-05-24T09:33:30.393Z,957.9785
2023-05-24T09:34:32.407Z,957.9523
2023-05-24T09:35:34.645Z,957.9500
2023-05-24T09:36:36.545Z,957.9684
2023-05-24T09:37:38.757Z,957.9600
2023-05-24T09:38:40.691Z,957.9546
2023-05-24T09:39:42.701Z,957.9554
2023-05-24T09:40:44.727Z,957.9785
2023-05-24T09:41:46.910Z,957.9654
2023-05-24T09:42:49.834Z,957.9792
2023-05-24T09:43:50.896Z,957.9592
2023-05-24T09:44:53.184Z,957.9631
2023-05-24T09:45:54.960Z,957.9677
2023-05-24T09:46:57.027Z,957.9769
2023-05-24T09:47:59.137Z,957.9223
2023-05-24T09:49:01.081Z,957.9808
2023-05-24T09:50:03.165Z,957.9754
2023-05-24T09:51:05.196Z,957.9769
2023-05-24T09:52:07.305Z,957.9293
2023-05-24T09:53:09.289Z,957.9277
2023-05-24T09:54:11.296Z,957.9254
2023-05-24T09:55:13.366Z,957.8923
2023-05-24T09:56:15.430Z,957.9285
2023-05-24T09:57:17.427Z,957.9315
2023-05-24T09:58:19.484Z,957.9238
2023-05-24T09:59:21.553Z,957.9446
2023-05-24T10:00:23.658Z,957.9108
2023-05-24T10:01:25.688Z,957.9738
2023-05-24T10:02:31.369Z,957.9869
2023-05-24T10:03:29.864Z,958.0123
2023-05-24T10:04:31.861Z,957.9731
2023-05-24T10:05:33.938Z,957.9938
2023-05-24T10:06:35.871Z,957.9900
2023-05-24T10:07:37.903Z,957.9869
2023-05-24T10:08:40.046Z,957.9738
2023-05-24T10:09:42.022Z,957.9723
2023-05-24T10:10:44.456Z,957.9677
2023-05-24T10:11:46.275Z,957.9615
2023-05-24T10:12:48.322Z,957.9677
2023-05-24T10:13:50.214Z,957.9684
2023-05-24T10:14:52.330Z,957.9854
2023-05-24T10:15:54.407Z,957.9861
2023-05-24T10:16:56.389Z,958.0100
2023-05-24T10:17:58.583Z,958.0269
2023-05-24T10:19:00.447Z,958.0200
2023-05-24T10:20:02.556Z,958.0331
2023-05-24T10:21:04.762Z,958.0361
2023-05-24T10:22:06.592Z,958.0500
2023-05-24T10:23:08.628Z,958.0654
2023-05-24T10:24:10.733Z,958.0700
2023-05-24T10:25:12.835Z,958.0461
2023-05-24T10:26:14.833Z,958.0638
2023-05-24T10:27:16.967Z,958.0546
2023-05-24T10:28:18.923Z,958.0416
2023-05-24T10:29:20.938Z,958.0269
2023-05-24T10:30:23.005Z,958.0361
2023-05-24T10:31:25.127Z,958.0339
2023-05-24T10:32:27.203Z,958.0446
2023-05-24T10:33:29.166Z,958.0339
2023-05-24T10:34:31.232Z,958.0377
2023-05-24T10:35:33.246Z,958.0254
2023-05-24T10:36:35.308Z,958.0262
2023-05-24T10:37:38.010Z,958.0346
2023-05-24T10:38:39.434Z,958.0385
2023-05-24T10:39:41.475Z,958.0269
2023-05-24T10:40:43.503Z,958.0369
2023-05-24T10:41:45.608Z,958.0361
2023-05-24T10:42:47.685Z,958.0500
2023-05-24T10:44:07.301Z,958.0423
2023-05-24T10:44:51.743Z,958.0423
2023-05-24T10:45:53.838Z,958.0615
2023-05-24T10:46:55.876Z,958.0654
2023-05-24T10:47:57.907Z,958.0931
2023-05-24T10:48:59.931Z,958.0854
2023-05-24T10:50:02.008Z,958.0770
2023-05-24T10:51:04.210Z,958.0954
2023-05-24T10:52:06.062Z,958.1077
2023-05-24T10:53:08.119Z,958.1138
2023-05-24T10:54:10.191Z,958.1369
2023-05-24T10:55:12.241Z,958.1500
2023-05-24T10:56:14.290Z,958.1600
2023-05-24T10:57:16.350Z,958.1577
2023-05-24T10:58:18.372Z,958.1723
2023-05-24T10:59:20.416Z,958.1946
2023-05-24T11:00:33.683Z,958.1846
2023-05-24T11:01:24.593Z,958.1877
2023-05-24T11:02:26.650Z,958.1730
2023-05-24T11:03:28.923Z,958.1623
2023-05-24T11:04:30.700Z,958.1769
2023-05-24T11:05:32.751Z,958.1823
2023-05-24T11:06:34.811Z,958.1985
2023-05-24T11:07:36.854Z,958.1823
2023-05-24T11:08:38.921Z,958.1500
2023-05-24T11:09:40.944Z,958.1254
2023-05-24T11:10:43.380Z,958.1339
2023-05-24T11:11:45.023Z,958.1700
2023-05-24T11:12:47.125Z,958.1215
2023-05-24T11:13:49.153Z,958.1154
2023-05-24T11:14:51.231Z,958.1023
2023-05-24T11:15:53.281Z,958.0692
2023-05-24T11:16:55.385Z,958.0846
2023-05-24T11:17:57.522Z,958.0916
2023-05-24T11:18:59.408Z,958.0762
2023-05-24T11:20:01.511Z,958.0677
2023-05-24T11:21:04.097Z,958.0546
2023-05-24T11:22:05.561Z,958.0208
2023-05-24T11:23:07.593Z,958.0092
2023-05-24T11:24:09.768Z,958.0185
2023-05-24T11:25:11.692Z,958.0139
2023-05-24T11:26:13.775Z,958.0400
2023-05-24T11:27:15.810Z,958.0300
2023-05-24T11:28:17.900Z,958.0554
2023-05-24T11:29:19.911Z,958.0339
2023-05-24T11:30:21.935Z,958.0408
2023-05-24T11:31:24.035Z,957.9823
2023-05-24T11:32:26.151Z,958.0123
2023-05-24T11:33:28.097Z,957.9969
2023-05-24T11:34:30.116Z,958.0031
2023-05-24T11:35:32.197Z,957.9877
2023-05-24T11:36:34.235Z,958.0000
2023-05-24T11:37:46.135Z,957.9869
2023-05-24T11:38:38.318Z,958.0192
2023-05-24T11:39:40.399Z,957.9854
2023-05-24T11:40:42.675Z,957.9515
2023-05-24T11:41:44.513Z,957.9485
2023-05-24T11:42:46.548Z,957.9338
2023-05-24T11:43:48.603Z,957.9169
2023-05-24T11:44:51.017Z,957.9292
2023-05-24T11:45:52.802Z,957.9354
2023-05-24T11:46:54.781Z,957.9246
2023-05-24T11:47:56.854Z,957.9285
2023-05-24T11:48:58.804Z,957.9193
2023-05-24T11:50:00.847Z,957.8939
2023-05-24T11:51:02.895Z,957.9123
2023-05-24T11:52:04.966Z,957.9069
2023-05-24T11:53:07.027Z,957.9330
2023-05-24T11:54:09.052Z,957.9016
2023-05-24T11:55:11.115Z,957.9046
2023-05-24T11:56:13.136Z,957.9300
2023-05-24T11:57:15.164Z,957.9462
2023-05-24T11:58:17.253Z,957.9138
2023-05-24T11:59:19.279Z,957.9238
2023-05-24T12:00:21.526Z,957.8954
2023-05-24T12:01:23.584Z,957.9300
2023-05-24T12:02:25.443Z,957.9054
2023-05-24T12:03:27.618Z,957.9193
2023-05-24T12:04:29.742Z,957.8969
2023-05-24T12:05:31.558Z,957.9016
2023-05-24T12:06:33.597Z,957.8800
2023-05-24T12:07:35.690Z,957.8416
2023-05-24T12:08:37.678Z,957.8469
2023-05-24T12:09:39.758Z,957.8561
2023-05-24T12:10:41.991Z,957.8300
2023-05-24T12:11:43.870Z,957.8130
2023-05-24T12:12:46.335Z,957.7953
2023-05-24T12:13:47.917Z,957.8154
2023-05-24T12:14:49.932Z,957.8031
2023-05-24T12:15:54.897Z,957.7939
2023-05-24T12:16:54.043Z,957.7816
2023-05-24T12:17:56.719Z,957.7685
2023-05-24T12:19:05.348Z,957.8008
2023-05-24T12:20:00.315Z,957.8054
2023-05-24T12:21:02.237Z,957.7831
2023-05-24T12:22:04.284Z,957.7961
2023-05-24T12:23:06.317Z,957.7877
2023-05-24T12:24:08.418Z,957.7685
2023-05-24T12:25:10.465Z,957.7761
2023-05-24T12:26:12.448Z,957.7531
2023-05-24T12:27:14.529Z,957.7607
2023-05-24T12:28:16.554Z,957.7531
2023-05-24T12:29:18.805Z,957.7723
2023-05-24T12:30:20.642Z,957.7323
2023-05-24T12:31:22.697Z,957.7431
2023-05-24T12:32:24.791Z,957.7585
2023-05-24T12:33:26.781Z,957.7646
2023-05-24T12:34:28.847Z,957.7700
2023-05-24T12:35:30.884Z,957.7908
2023-05-24T12:36:32.941Z,957.8384
2023-05-24T12:37:34.950Z,957.8823
2023-05-24T12:38:37.009Z,957.8508
2023-05-24T12:39:39.141Z,957.8446
2023-05-24T12:40:41.354Z,957.8561
2023-05-24T12:41:43.239Z,957.8892
2023-05-24T12:42:45.335Z,957.8608
2023-05-24T12:43:47.314Z,957.8439
2023-05-24T12:44:49.377Z,957.8307
2023-05-24T12:45:53.604Z,957.8277
2023-05-24T12:46:53.539Z,957.8030
2023-05-24T12:47:55.526Z,957.8585
2023-05-24T12:48:57.545Z,957.8546
2023-05-24T12:49:59.732Z,957.8531
2023-05-24T12:51:01.697Z,957.8192
2023-05-24T12:52:03.693Z,957.8516
2023-05-24T12:53:05.745Z,957.8677
2023-05-24T12:54:07.822Z,957.8523
2023-05-24T12:55:09.985Z,957.8446
2023-05-24T12:56:11.949Z,957.8469
2023-05-24T12:57:13.981Z,957.8023
2023-05-24T12:58:15.986Z,957.8269
2023-05-24T12:59:18.062Z,957.8262
2023-05-24T13:00:20.055Z,957.8277
2023-05-24T13:01:22.366Z,957.8069
2023-05-24T13:02:24.176Z,957.7961
2023-05-24T13:03:26.189Z,957.7861
2023-05-24T13:04:28.264Z,957.8162
2023-05-24T13:05:30.403Z,957.7931
2023-05-24T13:06:32.334Z,957.7562
2023-05-24T13:07:34.454Z,957.7662
2023-05-24T13:08:38.116Z,957.7269
2023-05-24T13:09:38.506Z,957.7569
2023-05-24T13:10:40.654Z,957.7400
2023-05-24T13:11:42.592Z,957.7254
2023-05-24T13:12:44.619Z,957.7377
2023-05-24T13:13:47.133Z,957.7192
2023-05-24T13:14:50.679Z,957.7261
2023-05-24T13:15:50.759Z,957.7269
2023-05-24T13:16:53.073Z,957.6946
2023-05-24T13:17:54.998Z,957.7023
2023-05-24T13:18:56.924Z,957.6915
2023-05-24T13:20:01.726Z,957.6715
2023-05-24T13:21:00.993Z,957.6892
2023-05-24T13:22:03.062Z,957.6777
2023-05-24T13:23:05.111Z,957.6708
2023-05-24T13:24:07.102Z,957.6516
2023-05-24T13:25:09.157Z,957.6639
2023-05-24T13:26:11.239Z,957.6407
2023-05-24T13:27:13.289Z,957.6085
2023-05-24T13:28:15.324Z,957.5954
2023-05-24T13:29:34.181Z,957.5939
2023-05-24T13:30:19.418Z,957.6123
2023-05-24T13:31:21.488Z,957.5792
2023-05-24T13:32:23.574Z,957.5823
2023-05-24T13:33:25.530Z,957.6193
2023-05-24T13:34:27.582Z,957.5854
2023-05-24T13:35:29.620Z,957.6100
2023-05-24T13:36:31.672Z,957.5916
2023-05-24T13:37:33.754Z,957.5992
2023-05-24T13:38:35.769Z,957.5923
2023-05-24T13:39:37.835Z,957.5715
2023-05-24T13:40:41.777Z,957.5777
2023-05-24T13:41:42.174Z,957.5785
2023-05-24T13:42:44.017Z,957.5754
2023-05-24T13:43:45.985Z,957.5846
2023-05-24T13:44:48.032Z,957.5708
2023-05-24T13:45:50.070Z,957.5962
2023-05-24T13:46:52.165Z,957.5992
2023-05-24T13:47:54.216Z,957.6138
2023-05-24T13:48:56.247Z,957.6500
2023-05-24T13:49:58.241Z,957.6138
2023-05-24T13:51:00.301Z,957.5884
2023-05-24T13:52:02.389Z,957.6039
2023-05-24T13:53:04.414Z,957.5877
2023-05-24T13:54:06.437Z,957.5800
2023-05-24T13:55:08.530Z,957.6046
2023-05-24T13:56:10.516Z,957.5939
2023-05-24T13:57:12.652Z,957.6270
2023-05-24T13:58:14.602Z,957.6238
2023-05-24T13:59:16.735Z,957.6439
2023-05-24T14:00:18.737Z,957.6523
2023-05-24T14:01:20.932Z,957.6423
2023-05-24T14:02:22.848Z,957.6407
2023-05-24T14:03:24.835Z,957.6238
2023-05-24T14:04:26.884Z,957.6046
2023-05-24T14:05:28.969Z,957.6300
2023-05-24T14:06:30.987Z,957.6539
2023-05-24T14:07:33.087Z,957.6485
2023-05-24T14:08:35.097Z,957.6516
2023-05-24T14:09:37.217Z,957.6731
2023-05-24T14:10:39.220Z,957.6862
2023-05-24T14:11:41.348Z,957.6892
2023-05-24T14:12:43.287Z,957.6577
2023-05-24T14:15:49.520Z,957.6516
2023-05-24T14:16:51.453Z,957.6477
2023-05-24T14:17:53.605Z,957.6131
2023-05-24T14:18:55.553Z,957.6108
2023-05-24T14:19:57.750Z,957.6146
2023-05-24T14:20:59.655Z,957.5954
2023-05-24T14:22:01.731Z,957.5962
2023-05-24T14:23:03.932Z,957.6054
2023-05-24T14:24:05.809Z,957.6093
2023-05-24T14:25:07.825Z,957.6031
2023-05-24T14:26:09.935Z,957.5984
2023-05-24T14:27:11.907Z,957.6208
2023-05-24T14:28:14.016Z,957.5992
2023-05-24T14:29:16.084Z,957.5839
2023-05-24T14:30:18.125Z,957.6000
2023-05-24T14:31:20.139Z,957.6392
2023-05-24T14:32:22.386Z,957.6054
2023-05-24T14:33:24.180Z,957.6085
2023-05-24T14:34:26.280Z,957.5792
2023-05-24T14:35:28.313Z,957.5623
2023-05-24T14:36:30.407Z,957.5692
2023-05-24T14:37:32.457Z,957.5877
2023-05-24T14:38:34.418Z,957.5485
2023-05-24T14:39:36.477Z,957.5431
2023-05-24T14:40:39.051Z,957.5162
2023-05-24T14:41:40.585Z,957.5215
2023-05-24T14:42:42.605Z,957.5139
2023-05-24T14:43:44.663Z,957.5154
2023-05-24T14:44:46.716Z,957.5139
2023-05-24T14:45:49.094Z,957.4892
2023-05-24T14:46:52.007Z,957.4885
2023-05-24T14:47:52.909Z,957.5046
2023-05-24T14:48:54.919Z,957.5461
2023-05-24T14:49:56.923Z,957.5254
2023-05-24T14:50:58.993Z,957.5392
2023-05-24T14:52:01.089Z,957.4962
2023-05-24T14:53:03.093Z,957.5192
2023-05-24T14:54:05.180Z,957.5454
2023-05-24T14:55:07.215Z,957.5100
2023-05-24T14:56:09.314Z,957.5054
2023-05-24T14:57:11.313Z,957.4746
2023-05-24T14:58:13.346Z,957.4769
2023-05-24T14:59:15.369Z,957.4700
2023-05-24T15:00:19.784Z,957.4677
2023-05-24T15:01:19.526Z,957.5062
2023-05-24T15:02:21.673Z,957.4700
2023-05-24T15:03:23.717Z,957.4969
2023-05-24T15:04:25.617Z,957.5031
2023-05-24T15:05:27.660Z,957.4800
2023-05-24T15:06:29.729Z,957.4708
2023-05-24T15:07:31.797Z,957.4546
2023-05-24T15:08:33.873Z,957.4485
2023-05-24T15:09:35.826Z,957.4507
2023-05-24T15:10:37.939Z,957.4554
2023-05-24T15:11:40.035Z,957.4185
2023-05-24T15:12:42.057Z,957.4600
2023-05-24T15:13:44.056Z,957.4385
2023-05-24T15:14:46.089Z,957.4623
2023-05-24T15:15:48.130Z,957.4484
2023-05-24T15:16:50.232Z,957.4392
2023-05-24T15:17:52.290Z,957.4631
2023-05-24T15:18:54.283Z,957.4584
2023-05-24T15:19:56.337Z,957.4031
2023-05-24T15:20:58.422Z,957.4169
2023-05-24T15:22:00.534Z,957.4277
2023-05-24T15:23:02.439Z,957.4392
2023-05-24T15:24:04.517Z,957.3815
2023-05-24T15:25:06.570Z,957.3477
2023-05-24T15:26:08.636Z,957.3554
2023-05-24T15:27:10.741Z,957.3561
2023-05-24T15:28:12.806Z,957.3500
2023-05-24T15:29:14.736Z,957.3115
2023-05-24T15:30:16.827Z,957.3239
2023-05-24T15:31:18.867Z,957.3608
2023-05-24T15:32:20.864Z,957.3392
2023-05-24T15:33:23.005Z,957.2885
2023-05-24T15:34:24.976Z,957.2777
2023-05-24T15:35:27.020Z,957.3000
2023-05-24T15:36:29.087Z,957.3223
2023-05-24T15:37:31.151Z,957.3323
2023-05-24T15:38:33.164Z,957.3108
2023-05-24T15:39:35.204Z,957.3323
2023-05-24T15:40:37.247Z,957.2608
2023-05-24T15:41:39.336Z,957.2938
2023-05-24T15:42:41.469Z,957.2677
2023-05-24T15:43:43.426Z,957.2446
2023-05-24T15:44:45.440Z,957.2715
2023-05-24T15:45:47.493Z,957.2816
2023-05-24T15:46:49.606Z,957.3085
2023-05-24T15:47:51.682Z,957.2708
2023-05-24T15:48:53.657Z,957.2731
2023-05-24T15:49:55.754Z,957.2939
2023-05-24T15:51:25.693Z,957.2777
2023-05-24T15:52:04.329Z,957.2592
2023-05-24T15:53:02.069Z,957.2985
2023-05-24T15:54:03.921Z,957.2677
2023-05-24T15:55:05.944Z,957.3123
2023-05-24T15:56:08.064Z,957.3284
2023-05-24T15:57:10.079Z,957.3038
2023-05-24T15:58:12.155Z,957.3146
2023-05-24T15:59:14.191Z,957.3215
2023-05-24T16:00:16.224Z,957.3231
2023-05-24T16:01:18.339Z,957.2938
2023-05-24T16:02:21.616Z,957.3585
2023-05-24T16:03:22.505Z,957.3246
2023-05-24T16:04:24.395Z,957.3292
2023-05-24T16:05:26.567Z,957.3100
2023-05-24T16:06:28.498Z,957.3315
2023-05-24T16:07:30.523Z,957.3638
2023-05-24T16:08:32.601Z,957.3677
2023-05-24T16:09:34.641Z,957.2977
2023-05-24T16:10:36.663Z,957.3200
2023-05-24T16:11:38.710Z,957.3215
2023-05-24T16:12:40.888Z,957.3085
2023-05-24T16:13:42.825Z,957.3077
2023-05-24T16:14:44.910Z,957.2862
2023-05-24T16:15:47.005Z,957.2946
2023-05-24T16:16:49.078Z,957.3038
2023-05-24T16:17:51.148Z,957.3138
2023-05-24T16:18:53.099Z,957.2831
2023-05-24T16:19:55.311Z,957.2646
2023-05-24T16:20:57.311Z,957.2831
2023-05-24T16:21:59.237Z,957.2816
2023-05-24T16:23:01.266Z,957.2846
2023-05-24T16:24:03.336Z,957.2662
2023-05-24T16:25:05.357Z,957.2861
2023-05-24T16:26:07.406Z,957.2961
2023-05-24T16:27:09.526Z,957.2708
2023-05-24T16:28:11.579Z,957.2669
2023-05-24T16:29:13.579Z,957.2938
2023-05-24T16:30:15.731Z,957.2808
2023-05-24T16:31:17.755Z,957.2607
2023-05-24T16:32:19.827Z,957.2316
2023-05-24T16:33:21.763Z,957.2607
2023-05-24T16:34:23.820Z,957.2161
2023-05-24T16:35:25.915Z,957.2069
2023-05-24T16:36:27.865Z,957.2192
2023-05-24T16:37:29.947Z,957.2361
2023-05-24T16:38:33.220Z,957.2285
2023-05-24T16:39:34.105Z,957.2000
2023-05-24T16:40:36.106Z,957.1523
2023-05-24T16:41:38.378Z,957.1592